Time;durP1;ratioP1;P1;durP2;ratioP2;P2;SDS_P1;SDS_P2;PMS_P1;PMS_P2;Temp;Humidity;BMP_temperature;BMP_pressure;BME280_temperature;BME280_humidity;BME280_pressure;Samples;Min_cycle;Max_cycle;Signal;HPM_P1;HPM_P2
2021/05/20 00:00:39;;;;;;;6.55;2.90;;;7.90;99.90;;;;;;5090660;28;20076;-52
2021/05/20 00:03:05;;;;;;;3.85;2.85;;;8.00;99.90;;;;;;5092319;28;20101;-54
2021/05/20 00:05:30;;;;;;;2.75;2.35;;;8.00;99.90;;;;;;5076174;28;20024;-56
2021/05/20 00:07:56;;;;;;;3.35;2.55;;;8.10;99.90;;;;;;5072064;28;20024;-55
2021/05/20 00:10:21;;;;;;;3.22;2.45;;;8.10;99.90;;;;;;5070458;28;20145;-56
2021/05/20 00:12:47;;;;;;;4.40;2.88;;;8.20;99.90;;;;;;5071848;28;20073;-53
2021/05/20 00:15:14;;;;;;;3.00;2.30;;;8.20;99.90;;;;;;5070387;28;20071;-52
2021/05/20 00:17:39;;;;;;;2.88;2.15;;;8.20;99.90;;;;;;5071914;28;20483;-52
2021/05/20 00:20:06;;;;;;;3.97;2.97;;;8.20;99.90;;;;;;5071803;28;20020;-57
2021/05/20 00:22:31;;;;;;;3.17;2.45;;;8.30;99.90;;;;;;5071752;28;20067;-55
2021/05/20 00:24:57;;;;;;;3.72;2.55;;;8.30;99.90;;;;;;5071631;28;20028;-53
2021/05/20 00:27:23;;;;;;;3.45;2.17;;;8.40;99.90;;;;;;5073280;28;20211;-57
2021/05/20 00:29:49;;;;;;;4.43;2.25;;;8.40;99.90;;;;;;5072820;28;20146;-56
2021/05/20 00:32:18;;;;;;;4.60;2.35;;;8.50;99.90;;;;;;5075294;28;20021;-55
2021/05/20 00:34:44;;;;;;;4.25;2.60;;;8.60;99.90;;;;;;5075110;28;20033;-56
2021/05/20 00:37:09;;;;;;;5.03;2.13;;;8.70;99.90;;;;;;5075417;28;20365;-55
2021/05/20 00:39:35;;;;;;;3.67;2.70;;;8.70;99.90;;;;;;5074923;28;20028;-55
2021/05/20 00:42:10;;;;;;;3.97;2.15;;;8.80;99.90;;;;;;5075164;28;20035;-56
2021/05/20 00:44:54;;;;;;;3.72;2.92;;;8.80;99.90;;;;;;5073818;28;20040;-54
2021/05/20 00:47:21;;;;;;;2.88;2.50;;;8.90;99.90;;;;;;5075158;28;20376;-56
2021/05/20 00:49:47;;;;;;;3.85;2.67;;;9.00;99.90;;;;;;5073658;28;20533;-55
2021/05/20 00:52:13;;;;;;;3.65;2.33;;;9.10;99.90;;;;;;5089286;28;20099;-54
2021/05/20 00:54:39;;;;;;;5.43;2.50;;;9.10;99.90;;;;;;5094833;28;20048;-55
2021/05/20 00:57:05;;;;;;;2.55;2.13;;;9.10;99.90;;;;;;5095353;28;20378;-56
2021/05/20 00:59:31;;;;;;;2.50;2.10;;;9.20;99.90;;;;;;5093916;28;20356;-57
2021/05/20 01:01:56;;;;;;;3.78;2.50;;;9.20;99.90;;;;;;5094951;28;20069;-57
2021/05/20 01:04:22;;;;;;;3.00;2.35;;;9.20;99.90;;;;;;5088338;28;20020;-57
2021/05/20 01:06:47;;;;;;;3.20;2.22;;;9.20;99.90;;;;;;5074689;28;20109;-56
2021/05/20 01:09:13;;;;;;;5.25;2.10;;;9.30;99.90;;;;;;5074666;28;20031;-52
2021/05/20 01:11:40;;;;;;;2.70;2.22;;;9.20;99.90;;;;;;5074674;28;20024;-55
2021/05/20 01:14:10;;;;;;;3.40;2.33;;;9.30;99.90;;;;;;5073324;28;20058;-55
2021/05/20 01:16:36;;;;;;;3.75;2.70;;;9.30;99.90;;;;;;5074456;28;20074;-52
2021/05/20 01:19:02;;;;;;;3.58;2.53;;;9.30;99.90;;;;;;5074626;28;20028;-56
2021/05/20 01:21:27;;;;;;;3.80;2.80;;;9.30;99.90;;;;;;5074081;28;20085;-52
2021/05/20 01:23:53;;;;;;;4.22;2.35;;;9.30;99.90;;;;;;5074138;28;20037;-54
2021/05/20 01:26:18;;;;;;;3.75;2.22;;;9.40;99.90;;;;;;5074295;28;20107;-55
2021/05/20 01:28:44;;;;;;;3.05;2.40;;;9.40;99.90;;;;;;5073153;28;20447;-54
2021/05/20 01:31:10;;;;;;;4.88;2.40;;;9.40;99.90;;;;;;5074148;28;20273;-55
2021/05/20 01:33:35;;;;;;;3.50;2.25;;;9.40;99.90;;;;;;5072668;28;20498;-57
2021/05/20 01:36:01;;;;;;;3.40;2.20;;;9.40;99.90;;;;;;5073995;28;20099;-54
2021/05/20 01:41:10;;;;;;;3.40;2.60;;;9.40;99.90;;;;;;5074109;28;20024;-57
2021/05/20 01:43:36;;;;;;;5.70;3.10;;;9.40;99.90;;;;;;5073977;28;20021;-55
2021/05/20 01:46:04;;;;;;;3.65;2.65;;;9.40;99.90;;;;;;5072484;28;20020;-56
2021/05/20 01:48:34;;;;;;;3.05;2.70;;;9.50;99.90;;;;;;5072404;28;20070;-55
2021/05/20 01:51:06;;;;;;;4.32;2.50;;;9.50;99.90;;;;;;5077967;28;20509;-56
2021/05/20 01:53:33;;;;;;;3.05;2.15;;;9.50;99.90;;;;;;5094120;28;20024;-56
2021/05/20 01:55:59;;;;;;;3.88;2.50;;;9.50;99.90;;;;;;5093758;28;20048;-51
2021/05/20 01:58:24;;;;;;;5.07;2.63;;;9.50;99.90;;;;;;5092734;28;20016;-52
2021/05/20 02:00:50;;;;;;;3.35;2.60;;;9.50;99.90;;;;;;5092482;28;20412;-56
2021/05/20 02:03:16;;;;;;;3.15;2.38;;;9.50;99.90;;;;;;5093735;28;20647;-57
2021/05/20 02:05:42;;;;;;;3.45;2.22;;;9.50;99.90;;;;;;5075911;28;20029;-56
2021/05/20 02:08:07;;;;;;;3.28;2.70;;;9.50;99.90;;;;;;5073639;28;20036;-55
2021/05/20 02:10:33;;;;;;;4.05;2.33;;;9.50;99.90;;;;;;5073421;28;20029;-52
2021/05/20 02:12:59;;;;;;;3.30;2.50;;;9.50;99.90;;;;;;5073425;28;20052;-52
2021/05/20 02:15:24;;;;;;;3.65;2.65;;;9.50;99.90;;;;;;5071937;28;20055;-56
2021/05/20 02:17:50;;;;;;;2.60;2.35;;;9.60;99.90;;;;;;5073040;28;20100;-53
2021/05/20 02:20:16;;;;;;;3.35;2.63;;;9.60;99.90;;;;;;5073258;28;20383;-53
2021/05/20 02:22:41;;;;;;;5.07;2.65;;;9.60;99.90;;;;;;5073094;28;20017;-52
2021/05/20 02:25:08;;;;;;;3.35;2.30;;;9.60;99.90;;;;;;5073159;28;20031;-54
2021/05/20 02:27:33;;;;;;;2.78;2.47;;;9.70;99.90;;;;;;5073208;28;20028;-52
2021/05/20 02:29:59;;;;;;;2.92;2.60;;;9.70;99.90;;;;;;5071655;28;20132;-55
2021/05/20 02:32:24;;;;;;;2.83;2.25;;;9.70;99.90;;;;;;5072962;28;20028;-57
2021/05/20 02:34:50;;;;;;;4.95;2.30;;;9.80;99.90;;;;;;5072689;28;20379;-54
2021/05/20 02:37:15;;;;;;;2.88;2.20;;;9.80;99.90;;;;;;5072995;28;20111;-56
2021/05/20 02:39:41;;;;;;;3.85;2.10;;;9.80;99.90;;;;;;5072817;28;20024;-55
2021/05/20 02:42:06;;;;;;;3.75;2.75;;;9.80;99.90;;;;;;5073123;28;20039;-55
2021/05/20 02:44:32;;;;;;;3.05;2.30;;;9.80;99.90;;;;;;5071758;28;20031;-52
2021/05/20 02:46:58;;;;;;;4.72;2.72;;;9.80;99.90;;;;;;5072643;28;20032;-54
2021/05/20 02:49:23;;;;;;;3.15;2.05;;;9.80;99.90;;;;;;5072623;28;20391;-56
2021/05/20 02:51:49;;;;;;;2.42;2.22;;;9.80;99.90;;;;;;5081473;28;20070;-57
2021/05/20 02:54:14;;;;;;;3.97;2.30;;;9.70;99.90;;;;;;5092815;28;20070;-57
2021/05/20 02:56:40;;;;;;;3.13;2.45;;;9.60;99.90;;;;;;5092840;28;20020;-55
2021/05/20 02:59:06;;;;;;;5.03;2.00;;;9.50;99.90;;;;;;5091628;28;20493;-56
2021/05/20 03:01:39;;;;;;;3.63;2.35;;;9.50;99.90;;;;;;5092689;28;20020;-56
2021/05/20 03:04:04;;;;;;;2.85;2.28;;;9.50;99.90;;;;;;5088568;28;20016;-54
2021/05/20 03:06:30;;;;;;;3.47;2.17;;;9.40;99.90;;;;;;5072610;28;20150;-54
2021/05/20 03:08:57;;;;;;;5.03;2.30;;;9.40;99.90;;;;;;5072518;28;20079;-52
2021/05/20 03:11:22;;;;;;;5.03;2.67;;;9.50;99.90;;;;;;5072564;28;20031;-55
2021/05/20 03:13:48;;;;;;;3.83;2.85;;;9.50;99.90;;;;;;5071063;28;20033;-53
2021/05/20 03:16:13;;;;;;;3.88;2.67;;;9.60;99.90;;;;;;5072306;28;20039;-53
2021/05/20 03:18:39;;;;;;;5.45;2.28;;;9.60;99.90;;;;;;5072472;28;20029;-52
2021/05/20 03:21:04;;;;;;;2.50;2.10;;;9.60;99.90;;;;;;5072027;28;20059;-53
2021/05/20 03:23:30;;;;;;;3.65;2.35;;;9.60;99.90;;;;;;5072470;28;20024;-53
2021/05/20 03:25:55;;;;;;;6.78;2.70;;;9.70;99.90;;;;;;5072195;28;20035;-54
2021/05/20 03:28:21;;;;;;;4.95;2.63;;;9.70;99.90;;;;;;5072381;28;20075;-54
2021/05/20 03:30:46;;;;;;;2.60;2.08;;;9.70;99.90;;;;;;5070795;28;20032;-53
2021/05/20 03:33:12;;;;;;;2.63;2.08;;;9.70;99.90;;;;;;5070535;28;20033;-55
2021/05/20 03:35:37;;;;;;;3.55;2.17;;;9.70;99.90;;;;;;5072298;28;20028;-55
2021/05/20 03:38:03;;;;;;;2.90;2.28;;;9.70;99.90;;;;;;5072324;28;20023;-53
2021/05/20 03:40:28;;;;;;;3.47;2.50;;;9.80;99.90;;;;;;5072231;28;20099;-53
2021/05/20 03:42:54;;;;;;;2.55;2.20;;;9.80;99.90;;;;;;5072187;28;20013;-56
2021/05/20 03:45:20;;;;;;;3.50;2.20;;;9.80;99.90;;;;;;5070835;28;20024;-54
2021/05/20 03:47:45;;;;;;;2.67;2.20;;;9.80;99.90;;;;;;5072184;28;20021;-56
2021/05/20 03:50:11;;;;;;;3.03;1.90;;;9.90;99.90;;;;;;5072003;28;20029;-55
2021/05/20 03:52:37;;;;;;;3.03;1.98;;;9.90;99.90;;;;;;5089947;28;20095;-56
2021/05/20 03:55:04;;;;;;;2.28;1.80;;;10.00;99.90;;;;;;5092117;28;20123;-53
2021/05/20 03:57:30;;;;;;;2.33;1.88;;;10.00;99.90;;;;;;5092464;28;20016;-54
2021/05/20 03:59:55;;;;;;;3.03;2.20;;;10.00;99.90;;;;;;5089467;28;20020;-53
2021/05/20 04:02:21;;;;;;;4.07;1.98;;;10.10;99.90;;;;;;5093825;28;20028;-55
2021/05/20 04:04:46;;;;;;;3.22;2.15;;;10.10;99.90;;;;;;5086059;28;20021;-54
2021/05/20 04:07:12;;;;;;;2.72;1.88;;;10.20;99.90;;;;;;5075719;28;20037;-54
2021/05/20 04:09:37;;;;;;;2.78;1.77;;;10.20;99.90;;;;;;5075597;28;20111;-53
2021/05/20 04:12:03;;;;;;;2.20;1.70;;;10.20;99.90;;;;;;5075579;28;20086;-55
2021/05/20 04:14:29;;;;;;;4.32;2.00;;;10.30;99.90;;;;;;5074298;28;20090;-52
2021/05/20 04:16:54;;;;;;;5.47;2.05;;;10.30;99.90;;;;;;5075546;28;20021;-52
2021/05/20 04:19:20;;;;;;;2.85;2.30;;;10.30;99.90;;;;;;5075643;28;20035;-56
2021/05/20 04:21:45;;;;;;;1.90;1.70;;;10.30;99.90;;;;;;5075309;28;20131;-54
2021/05/20 04:24:11;;;;;;;2.50;1.80;;;10.30;99.90;;;;;;5075579;28;20498;-54
2021/05/20 04:26:36;;;;;;;2.97;1.67;;;10.30;99.90;;;;;;5075431;28;20016;-55
2021/05/20 04:29:03;;;;;;;2.65;1.98;;;10.40;99.90;;;;;;5074068;28;20387;-55
2021/05/20 04:31:28;;;;;;;2.67;1.40;;;10.40;99.90;;;;;;5074074;28;20028;-54
2021/05/20 04:33:54;;;;;;;3.28;1.52;;;10.40;99.90;;;;;;5073959;28;20032;-55
2021/05/20 04:36:19;;;;;;;3.15;1.83;;;10.50;99.90;;;;;;5075137;28;20016;-54
2021/05/20 04:38:45;;;;;;;2.38;1.92;;;10.50;99.90;;;;;;5075245;28;20375;-54
2021/05/20 04:41:10;;;;;;;2.33;1.65;;;10.50;99.90;;;;;;5075095;28;20086;-54
2021/05/20 04:43:36;;;;;;;4.20;2.80;;;10.60;99.90;;;;;;5074569;28;20515;-57
2021/05/20 04:46:02;;;;;;;3.38;1.60;;;10.60;99.90;;;;;;5074375;28;20060;-54
2021/05/20 04:48:27;;;;;;;3.75;1.90;;;10.70;99.90;;;;;;5075109;28;20073;-54
2021/05/20 04:50:55;;;;;;;4.38;2.15;;;10.70;99.90;;;;;;5077931;28;20020;-56
2021/05/20 04:53:23;;;;;;;3.22;2.17;;;10.70;99.90;;;;;;5085366;28;20455;-56
2021/05/20 04:55:48;;;;;;;2.60;1.85;;;10.80;99.90;;;;;;5074105;28;20521;-56
2021/05/20 04:58:14;;;;;;;3.40;2.35;;;10.90;99.90;;;;;;5074397;28;20028;-55
2021/05/20 05:00:39;;;;;;;3.53;2.08;;;11.00;99.90;;;;;;5073294;28;20471;-57
2021/05/20 05:03:05;;;;;;;2.80;2.30;;;11.10;99.90;;;;;;5074469;28;20092;-52
2021/05/20 05:05:31;;;;;;;3.50;2.75;;;11.10;99.90;;;;;;5058522;28;20473;-57
2021/05/20 05:07:56;;;;;;;2.72;1.88;;;11.10;99.90;;;;;;5054420;28;20029;-53
2021/05/20 05:10:22;;;;;;;3.25;2.45;;;11.20;99.90;;;;;;5054597;28;20215;-56
2021/05/20 05:12:47;;;;;;;2.63;2.38;;;11.20;99.90;;;;;;5053975;28;20029;-56
2021/05/20 05:15:13;;;;;;;4.53;2.40;;;11.20;99.90;;;;;;5052074;28;20039;-57
2021/05/20 05:17:38;;;;;;;2.47;2.10;;;11.20;99.90;;;;;;5054623;28;20032;-55
2021/05/20 05:20:07;;;;;;;3.45;2.10;;;11.30;99.90;;;;;;5054481;28;20547;-56
2021/05/20 05:22:33;;;;;;;2.97;2.65;;;11.40;99.90;;;;;;5050650;28;20340;-54
2021/05/20 05:24:58;;;;;;;2.65;1.88;;;11.40;99.90;;;;;;5054346;28;20025;-54
2021/05/20 05:27:24;;;;;;;2.65;2.30;;;11.50;99.90;;;;;;5054318;28;20033;-59
2021/05/20 05:29:49;;;;;;;2.80;2.25;;;11.60;99.90;;;;;;5062710;28;20167;-59
2021/05/20 05:32:15;;;;;;;3.38;2.40;;;11.80;99.90;;;;;;5071997;28;20032;-58
2021/05/20 05:34:41;;;;;;;3.80;2.60;;;12.00;99.90;;;;;;5073552;28;20028;-54
2021/05/20 05:37:06;;;;;;;5.68;2.65;;;12.20;99.90;;;;;;5073133;28;20020;-58
2021/05/20 05:39:32;;;;;;;3.80;2.60;;;12.40;99.90;;;;;;5073878;28;20091;-56
2021/05/20 05:41:58;;;;;;;5.53;2.97;;;12.70;99.90;;;;;;5073609;28;20498;-57
2021/05/20 05:44:24;;;;;;;5.32;3.15;;;13.00;99.90;;;;;;5072500;28;20357;-58
2021/05/20 05:46:49;;;;;;;4.32;3.08;;;13.20;99.90;;;;;;5073779;28;20087;-57
2021/05/20 05:49:17;;;;;;;3.08;2.75;;;13.40;99.90;;;;;;5073540;28;20036;-58
2021/05/20 05:51:51;;;;;;;3.10;2.30;;;13.50;99.90;;;;;;5073548;28;20365;-56
2021/05/20 05:54:16;;;;;;;3.17;2.40;;;13.80;99.90;;;;;;5073091;28;20069;-57
2021/05/20 05:56:42;;;;;;;3.55;2.42;;;14.30;99.90;;;;;;5073296;28;20032;-51
2021/05/20 05:59:07;;;;;;;5.45;2.75;;;15.00;99.90;;;;;;5085919;28;20307;-52
2021/05/20 06:01:34;;;;;;;3.83;2.00;;;16.10;99.90;;;;;;5093604;28;20038;-55
2021/05/20 06:04:00;;;;;;;2.47;2.15;;;16.50;97.10;;;;;;5090073;28;20109;-57
2021/05/20 06:06:26;;;;;;;2.88;2.20;;;16.80;95.20;;;;;;5073186;28;20060;-56
2021/05/20 06:08:52;;;;;;;3.78;2.78;;;16.90;94.40;;;;;;5073225;28;20044;-54
2021/05/20 06:11:17;;;;;;;2.83;2.50;;;16.80;93.70;;;;;;5072860;28;20032;-53
2021/05/20 06:13:43;;;;;;;4.25;2.45;;;17.40;92.70;;;;;;5071786;28;20435;-51
2021/05/20 06:16:08;;;;;;;4.35;2.63;;;19.20;89.40;;;;;;5072796;28;20029;-52
2021/05/20 06:18:34;;;;;;;3.03;2.33;;;21.00;83.20;;;;;;5073039;28;20028;-54
2021/05/20 06:20:59;;;;;;;2.20;2.00;;;22.80;76.80;;;;;;5072973;28;20529;-56
2021/05/20 06:23:25;;;;;;;2.30;2.10;;;24.20;72.60;;;;;;5072747;28;20024;-51
2021/05/20 06:25:51;;;;;;;1.55;1.45;;;25.60;69.60;;;;;;5072860;28;20021;-52
2021/05/20 06:28:16;;;;;;;2.45;2.25;;;26.10;67.50;;;;;;5072543;28;20025;-53
2021/05/20 06:30:42;;;;;;;2.10;1.90;;;25.20;67.50;;;;;;5071933;28;20025;-52
2021/05/20 06:33:07;;;;;;;2.45;1.98;;;24.20;68.10;;;;;;5072556;28;20031;-55
2021/05/20 06:35:33;;;;;;;3.42;2.45;;;23.30;67.90;;;;;;5072775;28;20119;-53
2021/05/20 06:37:58;;;;;;;3.38;2.03;;;22.40;69.60;;;;;;5072764;28;20032;-57
2021/05/20 06:40:24;;;;;;;2.15;1.55;;;21.60;70.50;;;;;;5072687;28;20017;-57
2021/05/20 06:42:49;;;;;;;2.45;2.00;;;21.00;71.50;;;;;;5072554;28;20483;-50
2021/05/20 06:45:15;;;;;;;1.95;1.75;;;20.60;71.60;;;;;;5071346;28;20092;-51
2021/05/20 06:47:40;;;;;;;3.35;1.95;;;20.40;72.20;;;;;;5072681;28;20476;-48
2021/05/20 06:50:07;;;;;;;2.30;2.10;;;20.20;71.40;;;;;;5072562;28;20450;-51
2021/05/20 06:52:32;;;;;;;2.15;1.92;;;20.10;71.00;;;;;;5089599;28;20027;-49
2021/05/20 06:54:58;;;;;;;4.18;1.95;;;19.80;70.40;;;;;;5092516;28;20040;-51
2021/05/20 06:57:27;;;;;;;2.47;2.28;;;19.70;70.50;;;;;;5092397;28;20097;-52
2021/05/20 07:00:01;;;;;;;3.08;1.92;;;19.70;70.60;;;;;;5091652;28;20413;-55
2021/05/20 07:02:27;;;;;;;2.80;1.80;;;19.60;70.50;;;;;;5091318;28;20497;-58
2021/05/20 07:04:54;;;;;;;2.85;2.33;;;19.40;70.60;;;;;;5081981;28;20383;-56
2021/05/20 07:07:20;;;;;;;3.50;2.30;;;19.30;70.50;;;;;;5072447;28;20032;-55
2021/05/20 07:09:47;;;;;;;3.03;2.30;;;19.30;70.50;;;;;;5072323;28;20525;-54
2021/05/20 07:12:13;;;;;;;3.03;2.10;;;19.30;70.00;;;;;;5072454;28;20138;-57
2021/05/20 07:14:39;;;;;;;3.42;2.58;;;19.40;70.00;;;;;;5071254;28;20460;-56
2021/05/20 07:17:06;;;;;;;1.83;1.73;;;19.40;69.70;;;;;;5072486;28;20104;-54
2021/05/20 07:19:32;;;;;;;4.55;2.35;;;19.60;69.10;;;;;;5071285;28;20017;-52
2021/05/20 07:21:57;;;;;;;2.92;2.10;;;19.70;68.50;;;;;;5072364;28;20104;-56
2021/05/20 07:24:23;;;;;;;2.03;1.85;;;19.90;68.20;;;;;;5072149;28;20036;-57
2021/05/20 07:26:49;;;;;;;2.28;2.05;;;20.70;66.90;;;;;;5071097;28;20020;-56
2021/05/20 07:29:14;;;;;;;4.00;2.10;;;21.90;65.00;;;;;;5067464;28;20047;-56
2021/05/20 07:31:40;;;;;;;3.65;1.95;;;22.20;64.10;;;;;;5070771;28;20040;-54
2021/05/20 07:34:06;;;;;;;2.22;1.75;;;22.20;63.80;;;;;;5070942;28;20021;-57
2021/05/20 07:36:32;;;;;;;3.90;2.53;;;22.10;63.70;;;;;;5072519;28;20040;-53
2021/05/20 07:38:58;;;;;;;2.28;1.88;;;22.00;63.10;;;;;;5076127;28;20021;-58
2021/05/20 07:41:26;;;;;;;2.63;1.58;;;22.10;62.60;;;;;;5076278;28;20475;-57
2021/05/20 07:43:51;;;;;;;3.42;1.77;;;22.90;61.70;;;;;;5073843;28;20452;-58
2021/05/20 07:46:17;;;;;;;3.67;1.90;;;23.80;60.40;;;;;;5076268;28;20021;-57
2021/05/20 07:48:42;;;;;;;4.05;1.88;;;25.40;57.70;;;;;;5075977;28;20147;-58
2021/05/20 07:51:08;;;;;;;3.42;1.50;;;26.30;56.40;;;;;;5075976;28;20483;-55
2021/05/20 07:53:35;;;;;;;1.55;1.25;;;26.70;55.50;;;;;;5075504;28;20028;-58
2021/05/20 07:56:01;;;;;;;3.53;1.55;;;26.90;54.70;;;;;;5075622;28;20048;-58
2021/05/20 07:58:26;;;;;;;1.85;1.05;;;27.10;54.00;;;;;;5075485;28;20033;-56
2021/05/20 08:00:54;;;;;;;1.98;1.20;;;26.30;54.20;;;;;;5088874;28;20467;-55
2021/05/20 08:03:26;;;;;;;1.35;1.02;;;26.50;55.00;;;;;;5095798;28;20487;-56
2021/05/20 08:09:02;;;;;;;1.85;1.00;;;26.90;52.30;;;;;;5075753;28;20047;-56
2021/05/20 08:11:23;;;;;;;;;;;26.00;52.70;;;;;;5075671;28;20040;-55
2021/05/20 08:13:50;;;;;;;0.88;0.82;;;27.50;46.40;;;;;;5074117;28;20393;-58
2021/05/20 08:16:16;;;;;;;3.50;1.13;;;29.30;49.70;;;;;;5075435;28;20538;-58
2021/05/20 08:18:42;;;;;;;1.00;0.80;;;31.10;48.00;;;;;;5075086;28;20028;-58
2021/05/20 08:21:08;;;;;;;2.55;1.30;;;32.10;46.20;;;;;;5075366;28;20028;-55
2021/05/20 08:23:34;;;;;;;2.15;1.08;;;33.10;44.00;;;;;;5072835;28;20044;-60
2021/05/20 08:26:01;;;;;;;1.48;0.95;;;32.40;43.80;;;;;;5074025;28;20025;-53
2021/05/20 08:28:27;;;;;;;1.10;1.00;;;30.50;44.50;;;;;;5074618;28;20056;-52
2021/05/20 08:30:53;;;;;;;0.80;0.80;;;30.10;45.20;;;;;;5074298;28;20079;-52
2021/05/20 08:33:19;;;;;;;1.50;1.00;;;31.10;45.00;;;;;;5074742;28;20032;-53
2021/05/20 08:35:44;;;;;;;2.80;0.95;;;32.40;41.30;;;;;;5075228;28;20036;-48
2021/05/20 08:38:10;;;;;;;1.52;1.13;;;32.10;41.90;;;;;;5075171;28;20491;-51
2021/05/20 08:40:36;;;;;;;1.73;0.90;;;32.30;41.60;;;;;;5075124;28;20375;-51
2021/05/20 08:43:01;;;;;;;1.70;0.80;;;33.10;40.30;;;;;;5075030;28;20467;-54
2021/05/20 08:45:29;;;;;;;1.83;1.00;;;33.00;39.90;;;;;;5073674;28;20394;-55
2021/05/20 08:47:56;;;;;;;1.58;0.93;;;31.30;40.20;;;;;;5073975;28;20017;-49
2021/05/20 08:50:24;;;;;;;1.30;1.00;;;31.40;40.60;;;;;;5074421;28;20199;-51
2021/05/20 08:52:50;;;;;;;1.17;0.98;;;32.40;39.70;;;;;;5094517;28;20027;-51
2021/05/20 08:55:19;;;;;;;1.52;1.00;;;32.80;38.70;;;;;;5094829;28;20139;-53
2021/05/20 08:57:45;;;;;;;0.93;0.80;;;33.40;37.90;;;;;;5094897;28;20027;-49
2021/05/20 09:00:17;;;;;;;2.97;0.80;;;34.00;38.00;;;;;;5093970;28;20017;-49
2021/05/20 09:02:43;;;;;;;0.98;0.80;;;34.20;36.70;;;;;;5094788;28;20107;-49
2021/05/20 09:05:16;;;;;;;1.17;0.70;;;34.50;37.60;;;;;;5081879;28;20455;-52
2021/05/20 09:07:43;;;;;;;1.17;0.70;;;34.40;36.40;;;;;;5074489;28;20098;-54
2021/05/20 09:10:13;;;;;;;1.05;0.60;;;34.70;36.40;;;;;;5074647;28;20033;-52
2021/05/20 09:12:40;;;;;;;1.35;0.75;;;34.90;35.80;;;;;;5074270;28;20028;-51
2021/05/20 09:15:33;;;;;;;0.73;0.40;;;34.80;34.90;;;;;;5072917;28;20037;-53
2021/05/20 09:18:10;;;;;;;0.50;0.43;;;34.90;31.00;;;;;;5071307;28;20035;-51
2021/05/20 09:20:48;;;;;;;0.45;0.40;;;34.90;33.20;;;;;;5074211;28;20024;-49
2021/05/20 09:23:15;;;;;;;1.77;0.60;;;34.90;32.80;;;;;;5074118;28;20020;-55
2021/05/20 09:25:43;;;;;;;0.90;0.60;;;34.40;34.00;;;;;;5074294;28;20056;-49
2021/05/20 09:28:10;;;;;;;1.30;0.70;;;34.50;33.70;;;;;;5074348;28;20024;-50
2021/05/20 09:30:40;;;;;;;0.82;0.65;;;34.00;33.60;;;;;;5072783;28;20036;-50
2021/05/20 09:33:14;;;;;;;1.75;0.80;;;32.60;33.80;;;;;;5074138;28;20023;-49
2021/05/20 09:35:43;;;;;;;1.00;0.77;;;30.80;35.20;;;;;;5073996;28;20054;-50
2021/05/20 09:38:16;;;;;;;1.17;0.60;;;29.40;35.90;;;;;;5074036;28;20016;-51
2021/05/20 09:41:02;;;;;;;2.35;0.68;;;28.00;36.90;;;;;;5074155;28;20031;-48
2021/05/20 09:43:35;;;;;;;0.82;0.43;;;26.60;37.80;;;;;;5073052;28;20505;-51
2021/05/20 09:46:10;;;;;;;0.90;0.50;;;25.50;39.10;;;;;;5074043;28;20032;-49
2021/05/20 09:48:38;;;;;;;1.27;0.68;;;24.60;40.10;;;;;;5073633;28;20028;-48
2021/05/20 09:51:06;;;;;;;1.42;0.70;;;24.70;40.30;;;;;;5078663;28;20111;-50
2021/05/20 09:53:44;;;;;;;0.43;0.43;;;25.50;39.50;;;;;;5093745;28;20475;-50
2021/05/20 09:56:10;;;;;;;1.35;0.50;;;25.80;38.80;;;;;;5093921;28;20024;-49
2021/05/20 09:58:35;;;;;;;1.75;0.70;;;25.70;38.60;;;;;;5092241;28;20623;-48
2021/05/20 10:01:02;;;;;;;4.88;0.65;;;25.20;39.10;;;;;;5093209;28;20368;-48
2021/05/20 10:03:29;;;;;;;1.77;0.80;;;24.90;39.90;;;;;;5093598;28;20016;-49
2021/05/20 10:05:59;;;;;;;2.13;0.75;;;24.60;40.30;;;;;;5074188;28;20035;-52
2021/05/20 10:08:29;;;;;;;0.88;0.70;;;24.40;40.80;;;;;;5073266;28;20033;-49
2021/05/20 10:10:56;;;;;;;2.65;0.80;;;24.10;41.10;;;;;;5073451;28;20029;-52
2021/05/20 10:13:26;;;;;;;0.65;0.65;;;23.60;41.50;;;;;;5072802;28;20123;-49
2021/05/20 10:15:54;;;;;;;1.20;0.65;;;23.10;42.30;;;;;;5072892;28;20036;-47
2021/05/20 10:18:25;;;;;;;2.83;0.68;;;22.80;42.70;;;;;;5072988;28;20024;-50
2021/05/20 10:20:54;;;;;;;3.45;0.90;;;22.70;43.40;;;;;;5073175;28;20016;-49
2021/05/20 10:23:24;;;;;;;2.70;0.80;;;22.60;44.20;;;;;;5073336;28;20343;-48
2021/05/20 10:25:52;;;;;;;1.10;0.70;;;22.40;44.20;;;;;;5073070;28;20032;-48
2021/05/20 10:28:19;;;;;;;2.35;0.80;;;22.10;44.20;;;;;;5072878;28;20374;-49
2021/05/20 10:30:50;;;;;;;0.60;0.60;;;21.90;44.80;;;;;;5071625;28;20601;-51
2021/05/20 10:33:17;;;;;;;1.58;0.63;;;21.60;45.00;;;;;;5072911;28;20032;-50
2021/05/20 10:35:49;;;;;;;2.08;0.65;;;21.50;45.50;;;;;;5072786;28;20059;-50
2021/05/20 10:38:36;;;;;;;1.50;0.82;;;21.30;46.50;;;;;;5072826;28;20032;-48
2021/05/20 10:41:12;;;;;;;0.90;0.40;;;21.40;48.00;;;;;;5072951;28;20452;-50
2021/05/20 10:43:43;;;;;;;3.22;0.73;;;21.50;47.10;;;;;;5071127;28;20379;-49
2021/05/20 10:46:13;;;;;;;0.40;0.30;;;21.40;46.10;;;;;;5072773;28;20078;-49
2021/05/20 10:48:52;;;;;;;1.38;0.60;;;21.20;45.90;;;;;;5072472;28;20048;-52
2021/05/20 10:51:26;;;;;;;0.75;0.60;;;21.10;45.90;;;;;;5079286;28;20490;-52
2021/05/20 10:53:55;;;;;;;0.95;0.60;;;20.90;45.80;;;;;;5092436;28;20028;-48
2021/05/20 10:56:21;;;;;;;1.15;0.60;;;21.00;45.90;;;;;;5092955;28;20050;-49
2021/05/20 10:58:47;;;;;;;0.40;0.40;;;21.00;46.00;;;;;;5088728;28;20024;-52
2021/05/20 11:01:37;;;;;;;0.85;0.52;;;21.10;46.20;;;;;;5072146;28;20031;-51
2021/05/20 11:04:07;;;;;;;0.60;0.30;;;21.30;46.30;;;;;;5072429;28;20081;-47
2021/05/20 11:06:35;;;;;;;0.40;0.40;;;21.20;45.80;;;;;;5072317;28;20051;-50
2021/05/20 11:09:05;;;;;;;1.52;0.70;;;20.90;46.70;;;;;;5072515;28;20029;-49
2021/05/20 11:11:30;;;;;;;1.58;0.50;;;20.60;46.30;;;;;;5071795;28;20413;-50
2021/05/20 11:14:01;;;;;;;0.73;0.30;;;20.50;46.60;;;;;;5070937;28;20059;-48
2021/05/20 11:16:34;;;;;;;0.40;0.40;;;20.40;46.70;;;;;;5072015;28;20040;-49
2021/05/20 11:22:02;;;;;;;1.13;0.68;;;20.10;49.20;;;;;;5072053;28;20068;-53
2021/05/20 11:24:29;;;;;;;1.40;0.70;;;20.00;48.80;;;;;;5070501;28;20024;-48
2021/05/20 11:26:59;;;;;;;1.58;0.70;;;19.80;48.00;;;;;;5072130;28;20476;-48
2021/05/20 11:29:35;;;;;;;0.88;0.65;;;19.70;48.40;;;;;;5070785;28;20047;-47
2021/05/20 11:32:26;;;;;;;0.40;0.40;;;19.50;48.50;;;;;;5072190;28;20379;-49
2021/05/20 11:37:21;;;;;;;0.60;0.50;;;19.50;49.10;;;;;;5072255;28;20044;-48
2021/05/20 11:39:47;;;;;;;1.85;1.15;;;19.50;49.00;;;;;;5071775;28;20074;-48
2021/05/20 11:42:27;;;;;;;2.55;1.00;;;19.60;49.40;;;;;;5072137;28;20032;-49
2021/05/20 11:44:55;;;;;;;2.83;0.70;;;19.70;49.50;;;;;;5070626;28;20036;-48
2021/05/20 11:47:22;;;;;;;0.70;0.70;;;19.50;49.00;;;;;;5072147;28;20029;-48
2021/05/20 11:49:48;;;;;;;1.52;0.60;;;19.40;49.10;;;;;;5071768;28;20020;-48
2021/05/20 11:52:14;;;;;;;1.35;0.82;;;19.20;48.90;;;;;;5086518;28;20031;-51
2021/05/20 11:54:51;;;;;;;0.75;0.52;;;19.20;49.10;;;;;;5091863;28;20177;-52
2021/05/20 11:57:22;;;;;;;1.25;0.60;;;19.20;49.50;;;;;;5092230;28;20103;-48
2021/05/20 11:59:55;;;;;;;0.88;0.60;;;19.20;49.90;;;;;;5090431;28;20028;-48
2021/05/20 12:02:25;;;;;;;1.67;0.70;;;19.20;50.20;;;;;;5092053;28;20031;-47
2021/05/20 12:05:06;;;;;;;0.85;0.70;;;19.00;50.00;;;;;;5081338;28;20028;-55
2021/05/20 12:07:33;;;;;;;2.42;0.75;;;18.90;50.00;;;;;;5071825;28;20029;-52
2021/05/20 12:10:22;;;;;;;1.40;0.80;;;18.90;50.00;;;;;;5071808;28;20029;-53
2021/05/20 12:13:01;;;;;;;1.40;0.70;;;19.00;50.70;;;;;;5070519;28;20128;-53
2021/05/20 12:15:29;;;;;;;1.88;0.75;;;19.00;50.00;;;;;;5070533;28;20070;-50
2021/05/20 12:17:59;;;;;;;1.80;0.93;;;18.90;49.50;;;;;;5071562;28;20033;-53
2021/05/20 12:20:26;;;;;;;0.80;0.70;;;18.90;49.30;;;;;;5071608;28;20017;-50
2021/05/20 12:22:52;;;;;;;0.70;0.70;;;18.80;49.30;;;;;;5072058;28;20035;-48
2021/05/20 12:25:20;;;;;;;0.88;0.60;;;18.80;49.20;;;;;;5075123;28;20028;-51
2021/05/20 12:27:54;;;;;;;1.00;0.70;;;18.80;49.30;;;;;;5070906;28;20028;-53
2021/05/20 12:30:25;;;;;;;1.40;0.75;;;19.00;49.60;;;;;;5073930;28;20028;-53
2021/05/20 12:32:51;;;;;;;2.35;0.57;;;19.10;49.40;;;;;;5074810;28;20032;-48
2021/05/20 12:35:33;;;;;;;2.20;0.82;;;19.20;48.80;;;;;;5074490;28;20092;-49
2021/05/20 12:38:07;;;;;;;0.68;0.68;;;19.20;48.60;;;;;;5075170;28;20029;-49
2021/05/20 12:40:33;;;;;;;1.20;1.05;;;19.30;49.20;;;;;;5074946;28;20020;-49
2021/05/20 12:43:09;;;;;;;1.33;1.10;;;19.40;49.00;;;;;;5074865;28;20104;-50
2021/05/20 12:45:37;;;;;;;1.40;0.90;;;19.40;49.20;;;;;;5073540;28;20432;-51
2021/05/20 12:48:03;;;;;;;1.05;0.95;;;19.20;49.40;;;;;;5074923;28;20518;-53
2021/05/20 12:50:34;;;;;;;1.20;0.77;;;19.10;49.60;;;;;;5074846;28;20115;-53
2021/05/20 12:53:01;;;;;;;0.63;0.63;;;19.10;49.60;;;;;;5054755;28;20033;-50
2021/05/20 12:55:38;;;;;;;1.38;0.73;;;19.00;50.10;;;;;;5054632;28;20060;-48
2021/05/20 12:58:05;;;;;;;1.02;0.60;;;18.80;49.50;;;;;;5054699;28;20032;-49
2021/05/20 13:00:59;;;;;;;1.35;0.80;;;18.70;49.60;;;;;;5053420;28;20017;-49
2021/05/20 13:03:38;;;;;;;0.68;0.68;;;18.60;49.90;;;;;;5054593;28;20017;-48